Time;durP1;ratioP1;P1;durP2;ratioP2;P2;SDS_P1;SDS_P2;PMS_P1;PMS_P2;Temp;Humidity;BMP_temperature;BMP_pressure;BME280_temperature;BME280_humidity;BME280_pressure;Samples;Min_cycle;Max_cycle;Signal;HPM_P1;HPM_P2
2021/10/12 00:01:43;;;;;;;5.00;3.62;;;;;;;8.63;78.58;100902.33;1677987;85;21082;-82
2021/10/12 00:04:12;;;;;;;5.05;2.95;;;;;;;8.62;78.50;100892.26;1677028;85;21077;-81
2021/10/12 00:06:39;;;;;;;5.05;3.02;;;;;;;8.61;78.41;100890.45;1677744;85;21820;-82
2021/10/12 00:09:10;;;;;;;6.33;2.62;;;;;;;8.59;78.32;100896.50;1677880;85;21744;-82
2021/10/12 00:11:35;;;;;;;4.20;2.80;;;;;;;8.56;78.31;100892.05;1677461;85;21094;-82
2021/10/12 00:14:04;;;;;;;4.78;2.92;;;;;;;8.54;78.22;100889.80;1677882;85;21137;-82
2021/10/12 00:16:33;;;;;;;3.65;2.47;;;;;;;8.48;78.09;100881.69;1678033;85;21656;-82
2021/10/12 00:18:59;;;;;;;4.00;2.62;;;;;;;8.41;78.04;100887.11;1677838;85;22077;-82
2021/10/12 00:21:26;;;;;;;4.83;2.10;;;;;;;8.35;77.98;100889.09;1677758;85;21756;-82
2021/10/12 00:23:53;;;;;;;3.45;2.30;;;;;;;8.29;77.99;100887.97;1677637;83;21101;-82
2021/10/12 00:26:21;;;;;;;4.22;2.30;;;;;;;8.22;77.97;100898.67;1677548;85;21160;-82
2021/10/12 00:28:48;;;;;;;3.47;2.35;;;;;;;8.16;77.96;100898.42;1677753;85;21054;-82
2021/10/12 00:31:15;;;;;;;5.45;2.22;;;;;;;8.06;77.88;100888.02;1677871;85;21100;-82
2021/10/12 00:33:46;;;;;;;4.30;2.05;;;;;;;7.97;77.82;100885.05;1677615;85;21657;-82
2021/10/12 00:36:13;;;;;;;2.75;1.92;;;;;;;7.86;77.82;100892.92;1677611;85;21764;-82
2021/10/12 00:38:43;;;;;;;2.70;1.62;;;;;;;7.76;77.89;100891.69;1678240;85;21093;-82
2021/10/12 00:41:08;;;;;;;3.10;2.12;;;;;;;7.66;77.87;100881.27;1677772;85;21112;-82
2021/10/12 00:43:35;;;;;;;2.75;1.45;;;;;;;7.58;77.98;100878.36;1678115;85;21367;-82
2021/10/12 00:46:05;;;;;;;2.62;1.75;;;;;;;7.51;78.00;100878.94;1678033;85;21817;-82
2021/10/12 00:48:32;;;;;;;3.20;1.67;;;;;;;7.35;78.04;100857.78;1678111;85;21050;-81
2021/10/12 00:50:59;;;;;;;3.40;1.98;;;;;;;7.36;78.06;100870.48;1677893;85;21782;-81
2021/10/12 00:53:29;;;;;;;3.12;1.90;;;;;;;7.27;78.09;100864.45;1677149;85;21109;-81
2021/10/12 00:55:57;;;;;;;4.17;1.95;;;;;;;7.20;78.24;100860.68;1677967;85;21338;-81
2021/10/12 00:58:24;;;;;;;3.52;1.90;;;;;;;7.16;78.45;100865.32;1678317;85;21776;-81
2021/10/12 01:00:54;;;;;;;2.10;1.57;;;;;;;7.13;78.57;100872.15;1660384;85;21194;-82
2021/10/12 01:03:19;;;;;;;5.08;1.80;;;;;;;7.08;78.62;100874.59;1677685;85;21086;-80
2021/10/12 01:05:46;;;;;;;3.40;2.05;;;;;;;7.04;78.75;100871.77;1678079;85;22336;-81
2021/10/12 01:08:13;;;;;;;7.15;2.10;;;;;;;7.00;78.92;100870.36;1678127;85;21054;-82
2021/10/12 01:10:40;;;;;;;4.40;2.30;;;;;;;6.99;79.09;100876.41;1678031;85;21895;-82
2021/10/12 01:13:08;;;;;;;3.92;2.60;;;;;;;6.96;79.21;100876.70;1677994;85;21090;-81
2021/10/12 01:15:38;;;;;;;5.62;2.85;;;;;;;6.96;79.41;100872.77;1677911;85;21600;-81
2021/10/12 01:18:08;;;;;;;5.15;2.70;;;;;;;6.95;79.51;100871.88;1678101;85;21117;-82
2021/10/12 01:20:36;;;;;;;6.12;3.00;;;;;;;6.96;79.69;100872.38;1639478;85;21077;-82
2021/10/12 01:23:03;;;;;;;5.33;3.08;;;;;;;6.96;79.73;100870.16;1678314;85;21867;-82
2021/10/12 01:25:33;;;;;;;6.15;3.40;;;;;;;6.95;79.80;100865.77;1686409;83;21070;-83
2021/10/12 01:28:00;;;;;;;7.60;3.40;;;;;;;6.94;79.84;100863.54;1658105;85;21094;-82
2021/10/12 01:30:27;;;;;;;4.90;3.20;;;;;;;6.92;80.04;100858.66;1689243;84;21198;-82
2021/10/12 01:32:54;;;;;;;4.25;3.10;;;;;;;6.97;80.19;100860.17;1658263;86;21078;-82
2021/10/12 01:35:23;;;;;;;11.57;4.12;;;;;;;6.98;80.39;100849.78;1688139;84;21038;-82
2021/10/12 01:37:50;;;;;;;6.95;3.50;;;;;;;7.07;80.64;100830.03;1657830;86;21074;-82
2021/10/12 01:40:17;;;;;;;7.33;3.58;;;;;;;7.15;80.69;100833.45;1689293;84;21137;-83
2021/10/12 01:42:45;;;;;;;7.47;3.80;;;;;;;7.18;80.70;100830.93;1657948;86;21509;-82
2021/10/12 01:45:11;;;;;;;7.62;3.72;;;;;;;7.19;80.59;100831.42;1689447;84;21137;-82
2021/10/12 01:47:39;;;;;;;9.23;4.10;;;;;;;7.19;80.52;100832.73;1658191;86;21763;-82
2021/10/12 01:50:08;;;;;;;9.23;4.00;;;;;;;7.16;80.37;100835.22;1689211;84;21094;-82
2021/10/12 01:52:35;;;;;;;6.22;3.55;;;;;;;7.10;80.35;100827.55;1658227;86;21110;-82
2021/10/12 01:55:02;;;;;;;6.53;3.60;;;;;;;7.08;80.28;100829.22;1689338;84;21101;-80
2021/10/12 01:57:29;;;;;;;6.78;3.40;;;;;;;7.03;80.39;100830.75;1638935;86;21149;-81
2021/10/12 01:59:56;;;;;;;6.28;3.55;;;;;;;7.01;80.53;100817.59;1689143;84;22412;-81
2021/10/12 02:02:22;;;;;;;8.03;4.03;;;;;;;6.98;80.55;100812.22;1689111;84;21062;-81
2021/10/12 02:04:51;;;;;;;5.92;3.50;;;;;;;6.96;80.57;100811.27;1688906;84;21097;-81
2021/10/12 02:07:18;;;;;;;8.35;3.05;;;;;;;6.94;80.66;100819.48;1658324;86;21117;-80
2021/10/12 02:09:45;;;;;;;9.73;3.05;;;;;;;6.93;80.74;100813.36;1688907;84;21105;-81
2021/10/12 02:12:12;;;;;;;7.78;3.25;;;;;;;6.92;80.79;100822.02;1658269;85;21201;-80
2021/10/12 02:14:39;;;;;;;7.22;3.08;;;;;;;6.93;80.80;100817.70;1689058;84;21130;-81
2021/10/12 02:17:06;;;;;;;8.48;3.05;;;;;;;6.91;80.81;100809.79;1658266;86;21127;-81
2021/10/12 02:19:33;;;;;;;5.40;2.83;;;;;;;6.88;80.65;100816.19;1689272;84;21630;-81
2021/10/12 02:21:59;;;;;;;4.58;3.30;;;;;;;6.85;80.73;100815.17;1658219;85;21614;-80
2021/10/12 02:24:26;;;;;;;8.43;3.20;;;;;;;6.83;80.79;100806.37;1689001;83;21780;-82
2021/10/12 02:26:59;;;;;;;6.50;2.75;;;;;;;6.81;80.78;100808.53;1688386;84;21606;-82
2021/10/12 02:29:24;;;;;;;5.80;2.77;;;;;;;6.77;80.70;100796.13;1689282;84;21030;-82
2021/10/12 02:31:53;;;;;;;8.98;3.10;;;;;;;6.72;80.75;100798.98;1657819;86;21611;-82
2021/10/12 02:34:19;;;;;;;6.30;2.95;;;;;;;6.70;80.85;100787.58;1689686;84;21531;-82
2021/10/12 02:36:46;;;;;;;10.10;3.08;;;;;;;6.67;80.86;100787.44;1658430;86;21721;-82
2021/10/12 02:39:13;;;;;;;5.97;2.85;;;;;;;6.63;80.88;100788.14;1689358;84;21074;-81
2021/10/12 02:41:40;;;;;;;7.25;3.02;;;;;;;6.60;80.94;100788.89;1658276;86;21047;-82
2021/10/12 02:44:10;;;;;;;6.12;2.67;;;;;;;6.58;81.04;100789.24;1689225;84;21584;-81
2021/10/12 02:46:35;;;;;;;13.72;3.10;;;;;;;6.57;81.06;100781.36;1688670;84;21087;-80
2021/10/12 02:49:04;;;;;;;9.03;3.05;;;;;;;6.53;81.05;100776.80;1688140;84;21085;-80
2021/10/12 02:51:30;;;;;;;8.18;3.10;;;;;;;6.49;81.04;100779.70;1689117;84;21062;-81
2021/10/12 02:53:59;;;;;;;9.43;2.85;;;;;;;6.48;81.18;100773.13;1688200;84;21098;-81
2021/10/12 02:56:26;;;;;;;7.45;3.50;;;;;;;6.46;81.14;100775.67;1689147;84;21491;-81
2021/10/12 02:58:52;;;;;;;6.08;3.20;;;;;;;6.41;81.11;100769.35;1689280;84;21097;-81
2021/10/12 03:01:19;;;;;;;7.15;3.12;;;;;;;6.37;81.20;100769.63;1689316;84;21760;-81
2021/10/12 03:03:46;;;;;;;7.28;2.83;;;;;;;6.36;81.24;100772.17;1658195;85;21603;-81
2021/10/12 03:06:13;;;;;;;6.75;2.95;;;;;;;6.29;81.15;100775.35;1689102;84;21117;-81
2021/10/12 03:08:40;;;;;;;8.68;3.10;;;;;;;6.24;81.22;100772.55;1658079;86;21110;-81
2021/10/12 03:11:07;;;;;;;9.00;3.12;;;;;;;6.27;81.58;100779.63;1689307;84;21093;-81
2021/10/12 03:13:33;;;;;;;4.30;2.77;;;;;;;6.29;81.63;100768.42;1658260;86;22597;-82
2021/10/12 03:16:00;;;;;;;6.28;2.65;;;;;;;6.29;81.50;100756.66;1689048;84;21105;-82
2021/10/12 03:18:31;;;;;;;6.65;2.55;;;;;;;6.26;81.52;100753.91;1689081;84;21113;-82
2021/10/12 03:20:56;;;;;;;9.08;2.58;;;;;;;6.24;81.56;100747.73;1688898;84;21075;-82
2021/10/12 03:23:23;;;;;;;6.25;2.15;;;;;;;6.23;81.68;100742.00;1658160;86;21142;-82
2021/10/12 03:25:50;;;;;;;5.53;2.20;;;;;;;6.22;81.74;100744.16;1689000;83;21767;-82
2021/10/12 03:28:17;;;;;;;6.20;2.65;;;;;;;6.21;81.77;100741.05;1657825;86;21138;-82
2021/10/12 03:30:44;;;;;;;6.25;2.42;;;;;;;6.20;81.85;100745.39;1689067;84;21074;-81
2021/10/12 03:33:10;;;;;;;4.83;2.35;;;;;;;6.22;81.98;100741.55;1658150;86;21090;-81
2021/10/12 03:35:45;;;;;;;9.30;2.55;;;;;;;6.23;82.00;100745.92;1689158;84;21612;-81
2021/10/12 03:38:06;;;;;;;8.08;2.47;;;;;;;6.20;81.88;100741.89;1687814;83;21865;-81
2021/10/12 03:40:33;;;;;;;15.13;2.47;;;;;;;6.17;81.92;100738.72;1689137;84;21332;-81
2021/10/12 03:43:00;;;;;;;9.15;1.98;;;;;;;6.19;82.04;100746.63;1689178;84;21101;-81
2021/10/12 03:45:27;;;;;;;8.70;2.90;;;;;;;6.18;82.01;100741.83;1657827;86;21798;-81
2021/10/12 03:47:54;;;;;;;8.60;2.30;;;;;;;6.16;81.94;100736.95;1689085;84;21082;-81
2021/10/12 03:50:21;;;;;;;8.40;2.37;;;;;;;6.12;81.95;100735.04;1658277;86;21756;-81
2021/10/12 03:52:47;;;;;;;11.75;3.12;;;;;;;6.13;81.98;100739.84;1689097;84;21089;-81
2021/10/12 03:55:14;;;;;;;4.92;2.35;;;;;;;6.10;82.09;100728.86;1658205;86;21118;-81
2021/10/12 03:57:41;;;;;;;8.55;2.42;;;;;;;6.12;82.17;100732.42;1691700;84;21073;-81
2021/10/12 04:00:09;;;;;;;6.95;2.05;;;;;;;6.14;82.24;100737.72;1683322;85;21137;-80
2021/10/12 04:02:36;;;;;;;6.70;2.22;;;;;;;6.16;82.35;100734.34;1696039;83;21720;-82
2021/10/12 04:05:02;;;;;;;6.20;1.87;;;;;;;6.18;82.39;100733.98;1695906;84;21082;-81
2021/10/12 04:07:29;;;;;;;8.93;4.35;;;;;;;6.20;82.30;100732.75;1695908;84;21082;-80
2021/10/12 04:09:56;;;;;;;6.25;2.35;;;;;;;6.20;82.36;100731.44;1695953;83;21635;-83
2021/10/12 04:12:24;;;;;;;6.90;2.10;;;;;;;6.24;82.53;100725.51;1663524;83;21132;-79
2021/10/12 04:14:51;;;;;;;7.40;2.15;;;;;;;6.29;82.56;100718.76;1683584;85;21760;-80
2021/10/12 04:17:20;;;;;;;9.20;1.90;;;;;;;6.31;82.53;100706.64;1663605;84;21105;-78
2021/10/12 04:19:48;;;;;;;6.58;2.10;;;;;;;6.36;82.56;100709.04;1683180;85;21078;-80
2021/10/12 04:22:15;;;;;;;10.08;2.58;;;;;;;6.39;82.46;100707.84;1696185;84;21085;-80
2021/10/12 04:24:45;;;;;;;13.38;2.15;;;;;;;6.42;82.48;100705.36;1696312;82;21214;-85
2021/10/12 04:27:14;;;;;;;9.30;2.25;;;;;;;6.48;82.51;100711.68;1708413;83;21921;-87
2021/10/12 04:29:42;;;;;;;8.30;1.60;;;;;;;6.51;82.54;100701.32;1709345;83;21089;-93
2021/10/12 04:32:14;;;;;;;7.72;2.40;;;;;;;6.56;82.47;100704.60;1709139;83;21030;-86
2021/10/12 04:34:41;;;;;;;6.10;1.95;;;;;;;6.60;82.47;100706.50;1709321;83;21089;-88
2021/10/12 04:37:21;;;;;;;7.25;2.05;;;;;;;6.66;82.46;100703.24;1709601;83;21065;-87
2021/10/12 04:39:51;;;;;;;5.10;1.80;;;;;;;6.71;82.40;100706.06;1709310;83;22627;-86
2021/10/12 04:42:18;;;;;;;7.53;1.82;;;;;;;6.74;82.28;100697.92;1709053;83;21595;-77
2021/10/12 04:44:47;;;;;;;4.72;1.75;;;;;;;6.77;82.26;100694.09;1708989;83;21084;-78
2021/10/12 04:47:13;;;;;;;6.95;2.05;;;;;;;6.79;82.14;100693.77;1680929;83;21093;-78
2021/10/12 04:49:40;;;;;;;6.92;2.17;;;;;;;6.80;82.06;100694.23;1708844;83;21606;-78
2021/10/12 04:52:07;;;;;;;4.75;1.47;;;;;;;6.80;81.97;100694.23;1708754;83;22546;-78
2021/10/12 04:54:33;;;;;;;6.03;1.42;;;;;;;6.80;81.95;100685.50;1708484;83;21077;-78
2021/10/12 04:57:00;;;;;;;6.78;1.95;;;;;;;6.80;81.96;100687.69;1708634;83;21410;-80
2021/10/12 04:59:27;;;;;;;5.65;1.85;;;;;;;6.84;81.96;100686.52;1708932;83;21155;-80
2021/10/12 05:01:53;;;;;;;7.15;2.08;;;;;;;6.88;81.99;100687.09;1708798;83;21053;-79
2021/10/12 05:04:20;;;;;;;6.95;2.08;;;;;;;6.93;82.02;100686.45;1708793;83;21725;-81
2021/10/12 05:06:47;;;;;;;4.12;1.72;;;;;;;7.01;82.05;100678.46;1708777;83;21088;-81
2021/10/12 05:09:13;;;;;;;8.48;2.17;;;;;;;7.10;82.00;100684.90;1708640;83;21089;-80
2021/10/12 05:11:40;;;;;;;4.95;1.95;;;;;;;7.16;81.92;100679.46;1708888;83;21507;-80
2021/10/12 05:14:07;;;;;;;11.97;2.08;;;;;;;7.22;81.74;100683.15;1708840;83;21111;-80
2021/10/12 05:16:34;;;;;;;7.28;1.70;;;;;;;7.23;81.59;100685.83;1708838;83;21749;-80
2021/10/12 05:19:01;;;;;;;7.03;2.08;;;;;;;7.24;81.43;100680.17;1680561;83;21088;-80
2021/10/12 05:21:28;;;;;;;5.78;1.80;;;;;;;7.25;81.38;100684.59;1708897;83;21112;-80
2021/10/12 05:23:54;;;;;;;6.60;1.70;;;;;;;7.28;81.41;100679.44;1708874;83;21191;-80
2021/10/12 05:26:22;;;;;;;6.78;1.77;;;;;;;7.32;81.31;100680.02;1701600;83;21180;-80
2021/10/12 05:28:51;;;;;;;4.90;1.92;;;;;;;7.35;81.20;100681.45;1682862;85;21675;-79
2021/10/12 05:31:21;;;;;;;8.23;2.02;;;;;;;7.36;81.09;100680.64;1695740;83;21089;-80
2021/10/12 05:33:48;;;;;;;4.90;1.70;;;;;;;7.35;80.96;100682.77;1695733;84;21149;-80
2021/10/12 05:36:15;;;;;;;4.42;1.75;;;;;;;7.35;81.06;100682.34;1683410;85;21102;-80
2021/10/12 05:38:42;;;;;;;5.03;1.90;;;;;;;7.38;81.00;100677.66;1695846;84;21140;-80
2021/10/12 05:41:09;;;;;;;9.78;2.20;;;;;;;7.41;80.88;100673.81;1695742;83;21920;-80
2021/10/12 05:43:36;;;;;;;6.10;1.70;;;;;;;7.40;80.83;100674.24;1695831;84;21074;-80
2021/10/12 05:46:02;;;;;;;10.08;2.45;;;;;;;7.43;80.77;100677.37;1695527;83;21101;-80
2021/10/12 05:48:29;;;;;;;8.20;2.20;;;;;;;7.45;80.69;100674.43;1695704;84;21168;-80
2021/10/12 05:50:56;;;;;;;6.75;1.98;;;;;;;7.45;80.60;100674.43;1695746;84;21172;-80
2021/10/12 05:53:31;;;;;;;6.53;2.17;;;;;;;7.45;80.47;100676.13;1683386;85;21719;-80
2021/10/12 05:58:32;;;;;;;4.05;1.77;;;;;;;7.39;80.28;100671.56;1696258;83;21145;-80
2021/10/12 06:00:59;;;;;;;6.70;2.22;;;;;;;7.35;80.29;100682.34;1696133;83;21035;-80
2021/10/12 06:03:26;;;;;;;5.92;1.70;;;;;;;7.36;80.32;100675.40;1695801;83;21027;-80
2021/10/12 06:05:53;;;;;;;7.15;2.00;;;;;;;7.35;80.29;100674.48;1683190;85;21779;-79
2021/10/12 06:08:20;;;;;;;6.42;1.87;;;;;;;7.40;80.32;100683.84;1695797;84;21109;-80
2021/10/12 06:10:46;;;;;;;5.20;2.00;;;;;;;7.42;80.30;100684.78;1695807;84;21094;-80
2021/10/12 06:13:13;;;;;;;10.05;5.25;;;;;;;7.47;80.34;100679.70;1695700;84;21167;-80
2021/10/12 06:15:41;;;;;;;4.80;1.52;;;;;;;7.52;80.36;100675.52;1695762;84;21597;-80
2021/10/12 06:18:08;;;;;;;5.80;1.80;;;;;;;7.58;80.27;100676.65;1695763;84;21833;-80
2021/10/12 06:20:35;;;;;;;5.83;1.52;;;;;;;7.63;80.14;100668.94;1683295;85;21078;-80
2021/10/12 06:23:02;;;;;;;8.63;3.98;;;;;;;7.69;80.05;100670.45;1695713;83;21093;-80
2021/10/12 06:25:29;;;;;;;9.83;2.95;;;;;;;7.73;79.94;100676.30;1696674;83;21073;-80
2021/10/12 06:27:56;;;;;;;6.00;2.92;;;;;;;7.78;79.85;100681.27;1708607;83;21124;-80
2021/10/12 06:30:23;;;;;;;6.53;2.60;;;;;;;7.82;79.71;100680.08;1709021;83;22010;-80
2021/10/12 06:32:49;;;;;;;4.92;1.80;;;;;;;7.86;79.64;100680.65;1708780;83;21049;-80
2021/10/12 06:35:16;;;;;;;5.30;1.77;;;;;;;7.90;79.49;100682.53;1708926;83;21258;-80
2021/10/12 06:37:43;;;;;;;5.83;2.08;;;;;;;7.94;79.37;100682.70;1708852;83;21733;-80
2021/10/12 06:40:12;;;;;;;2.95;1.98;;;;;;;8.01;79.24;100685.53;1708779;83;21164;-80
2021/10/12 06:42:39;;;;;;;4.17;2.67;;;;;;;8.05;79.11;100686.09;1708945;83;21799;-80
2021/10/12 06:45:06;;;;;;;7.17;3.40;;;;;;;8.11;79.01;100687.22;1708821;83;21081;-80
2021/10/12 06:47:33;;;;;;;24.47;12.75;;;;;;;8.16;78.87;100684.34;1709028;83;21697;-80
2021/10/12 06:50:03;;;;;;;13.72;9.50;;;;;;;8.23;78.70;100687.16;1708846;83;21098;-80
2021/10/12 06:52:28;;;;;;;16.23;12.75;;;;;;;8.29;78.53;100682.98;1708329;83;21603;-80
2021/10/12 06:54:55;;;;;;;14.70;10.08;;;;;;;8.34;78.36;100680.11;1708984;83;21909;-80
2021/10/12 06:57:21;;;;;;;7.90;4.87;;;;;;;8.40;78.16;100681.16;1708850;83;21458;-80
2021/10/12 06:59:48;;;;;;;14.43;12.05;;;;;;;8.45;78.05;100679.19;1709133;83;21136;-80
2021/10/12 07:02:18;;;;;;;7.72;5.72;;;;;;;8.56;78.04;100683.05;1708959;83;21043;-80
2021/10/12 07:04:43;;;;;;;14.35;9.25;;;;;;;8.66;77.77;100673.73;1708332;83;21061;-80
2021/10/12 07:07:11;;;;;;;15.83;11.68;;;;;;;8.72;77.61;100684.84;1707604;83;21076;-81
2021/10/12 07:09:38;;;;;;;12.15;6.67;;;;;;;8.75;77.36;100677.95;1708797;83;21717;-81
2021/10/12 07:12:05;;;;;;;12.55;8.65;;;;;;;8.80;77.19;100679.82;1708730;83;22382;-81
2021/10/12 07:14:32;;;;;;;23.02;15.88;;;;;;;8.81;77.05;100679.88;1708670;83;21195;-80
2021/10/12 07:16:59;;;;;;;15.85;11.97;;;;;;;8.86;76.97;100680.92;1708663;83;21092;-80
2021/10/12 07:19:28;;;;;;;15.08;9.30;;;;;;;8.95;77.07;100680.28;1708613;83;21798;-81
2021/10/12 07:21:55;;;;;;;6.78;2.83;;;;;;;9.14;77.20;100682.64;1708514;83;21077;-81
2021/10/12 07:24:22;;;;;;;6.85;2.60;;;;;;;9.39;77.20;100685.09;1708659;83;21140;-81
2021/10/12 07:26:53;;;;;;;3.98;1.87;;;;;;;9.68;77.07;100681.52;1702448;83;21097;-81
2021/10/12 07:29:19;;;;;;;3.70;1.98;;;;;;;10.08;77.11;100685.67;1694852;83;21035;-80
2021/10/12 07:31:45;;;;;;;5.90;1.98;;;;;;;10.48;76.78;100682.75;1695635;83;22428;-80
2021/10/12 07:34:12;;;;;;;5.08;1.80;;;;;;;10.74;76.33;100679.85;1695435;84;21153;-81
2021/10/12 07:36:39;;;;;;;7.28;1.85;;;;;;;10.96;75.84;100680.80;1695426;84;21144;-81
2021/10/12 07:39:06;;;;;;;5.08;1.55;;;;;;;11.13;75.58;100678.94;1695414;83;21176;-80
2021/10/12 07:41:33;;;;;;;4.30;1.80;;;;;;;11.22;75.02;100677.41;1695662;84;21109;-80
2021/10/12 07:44:00;;;;;;;3.90;1.67;;;;;;;11.24;74.68;100674.37;1695597;84;21759;-80
2021/10/12 07:46:27;;;;;;;5.35;1.60;;;;;;;11.28;74.54;100678.85;1695441;84;21027;-80
2021/10/12 07:48:54;;;;;;;3.55;1.42;;;;;;;11.23;74.16;100675.66;1695392;83;21104;-80
2021/10/12 07:51:21;;;;;;;4.95;2.33;;;;;;;11.10;73.84;100675.82;1695552;84;21939;-81
2021/10/12 07:53:50;;;;;;;3.55;2.00;;;;;;;11.01;73.76;100679.56;1695652;83;21094;-80
2021/10/12 07:56:35;;;;;;;5.25;2.08;;;;;;;10.90;73.54;100676.69;1695847;83;21805;-80
2021/10/12 07:58:50;;;;;;;6.55;2.02;;;;;;;10.76;73.49;100674.19;1692198;84;21054;-81
2021/10/12 08:01:16;;;;;;;3.70;1.90;;;;;;;10.64;73.52;100665.56;1696037;84;22219;-81
2021/10/12 08:03:44;;;;;;;7.20;1.70;;;;;;;10.56;73.56;100664.06;1695755;83;21136;-80
2021/10/12 08:06:11;;;;;;;5.58;2.37;;;;;;;10.52;73.66;100663.97;1683499;85;21081;-80
2021/10/12 08:08:38;;;;;;;7.75;2.45;;;;;;;10.51;73.86;100661.78;1695791;84;21774;-80
2021/10/12 08:11:04;;;;;;;7.03;2.15;;;;;;;10.57;74.05;100661.91;1695546;83;21141;-80
2021/10/12 08:13:34;;;;;;;8.35;1.72;;;;;;;10.69;74.10;100666.56;1695838;84;21589;-80
2021/10/12 08:16:07;;;;;;;3.65;1.85;;;;;;;10.84;74.22;100661.64;1695667;84;21658;-80
2021/10/12 08:18:28;;;;;;;3.87;1.60;;;;;;;11.04;74.20;100662.09;1694341;83;21156;-80
2021/10/12 08:20:55;;;;;;;5.08;1.80;;;;;;;11.21;73.83;100660.25;1695807;83;21765;-81
2021/10/12 08:23:22;;;;;;;6.37;1.60;;;;;;;11.33;73.35;100660.48;1683296;85;21541;-80
2021/10/12 08:25:48;;;;;;;6.15;2.83;;;;;;;11.42;73.07;100654.52;1695863;84;21083;-80
2021/10/12 08:28:15;;;;;;;3.22;1.45;;;;;;;11.52;72.75;100652.95;1690028;84;21227;-80
2021/10/12 08:30:42;;;;;;;3.55;1.77;;;;;;;11.57;72.38;100656.14;1690823;83;21141;-81
2021/10/12 08:33:09;;;;;;;4.08;1.57;;;;;;;11.56;71.88;100651.74;1691051;84;21914;-80
2021/10/12 08:35:36;;;;;;;5.60;2.10;;;;;;;11.47;71.42;100651.56;1691004;84;21590;-80
2021/10/12 08:38:03;;;;;;;4.45;2.08;;;;;;;11.38;71.29;100652.25;1690957;84;21050;-81
2021/10/12 08:40:31;;;;;;;3.92;1.60;;;;;;;11.28;71.15;100653.82;1691150;83;21626;-80
2021/10/12 08:43:00;;;;;;;9.63;3.83;;;;;;;11.18;71.04;100654.47;1691083;83;21107;-81
2021/10/12 08:45:27;;;;;;;6.05;2.75;;;;;;;11.13;71.11;100656.55;1691148;83;21789;-81
2021/10/12 08:47:54;;;;;;;3.72;1.50;;;;;;;11.08;71.04;100657.34;1691032;84;21105;-81
2021/10/12 08:50:22;;;;;;;3.12;2.00;;;;;;;10.99;70.68;100651.88;1691268;84;21085;-81
2021/10/12 08:52:49;;;;;;;2.58;1.98;;;;;;;10.88;70.66;100657.34;1691164;84;21149;-81
2021/10/12 08:55:16;;;;;;;2.77;1.25;;;;;;;10.78;70.51;100656.25;1690868;84;22403;-81
2021/10/12 08:57:44;;;;;;;4.15;1.85;;;;;;;10.73;70.57;100655.24;1690978;84;21717;-81
2021/10/12 09:00:19;;;;;;;3.05;1.67;;;;;;;10.72;70.68;100657.83;1690942;84;21101;-81
2021/10/12 09:02:57;;;;;;;3.98;1.55;;;;;;;10.73;70.77;100663.58;1691143;84;21086;-82
2021/10/12 09:05:26;;;;;;;6.47;3.33;;;;;;;10.77;70.79;100650.94;1690836;84;21112;-82
2021/10/12 09:07:52;;;;;;;4.95;1.90;;;;;;;10.81;70.60;100664.22;1691198;83;21235;-80
2021/10/12 09:10:23;;;;;;;6.53;2.30;;;;;;;10.84;70.36;100652.86;1691051;84;22582;-82
2021/10/12 09:12:50;;;;;;;5.78;2.40;;;;;;;10.87;70.51;100657.77;1691146;83;21699;-82
2021/10/12 09:15:17;;;;;;;3.50;1.67;;;;;;;10.95;70.33;100655.30;1691141;84;21778;-82
2021/10/12 09:17:49;;;;;;;3.22;1.62;;;;;;;10.98;70.11;100651.84;1691135;84;21027;-80
2021/10/12 09:20:24;;;;;;;5.30;2.08;;;;;;;11.02;70.04;100647.13;1689911;84;21105;-79
2021/10/12 09:23:09;;;;;;;4.80;3.12;;;;;;;11.08;69.88;100646.80;1691149;84;22457;-80
2021/10/12 09:25:39;;;;;;;7.40;2.02;;;;;;;11.17;69.73;100647.44;1691201;84;21129;-80
2021/10/12 09:28:07;;;;;;;8.98;2.55;;;;;;;11.32;69.64;100648.59;1690737;84;21600;-80
2021/10/12 09:30:37;;;;;;;6.15;2.42;;;;;;;11.45;69.62;100635.70;1691061;84;21050;-80
2021/10/12 09:33:11;;;;;;;19.15;4.20;;;;;;;11.62;69.44;100637.79;1690783;84;21105;-80
2021/10/12 09:35:37;;;;;;;;;;;;;;;11.78;69.34;100638.50;1643798;84;22472;-81
2021/10/12 09:38:10;;;;;;;7.00;2.08;;;;;;;11.93;68.80;100639.25;1690985;84;20288;-80
2021/10/12 09:40:39;;;;;;;3.47;1.70;;;;;;;12.05;68.73;100643.87;1691337;84;21042;-81
2021/10/12 09:43:06;;;;;;;14.25;3.80;;;;;;;12.21;68.68;100635.77;1690804;84;21075;-81
2021/10/12 09:45:42;;;;;;;17.42;2.95;;;;;;;12.39;68.53;100626.83;1691204;84;21081;-80
2021/10/12 09:48:34;;;;;;;3.77;1.60;;;;;;;12.61;68.31;100628.05;1690371;84;21766;-81
2021/10/12 09:51:10;;;;;;;3.37;1.60;;;;;;;12.83;67.91;100629.22;1691069;84;21097;-80
2021/10/12 09:53:38;;;;;;;3.17;1.30;;;;;;;13.03;67.53;100629.50;1691196;84;22289;-80
2021/10/12 09:56:06;;;;;;;9.93;7.17;;;;;;;13.20;67.08;100631.47;1691055;84;21031;-81
2021/10/12 09:58:33;;;;;;;6.78;3.62;;;;;;;13.35;66.91;100634.33;1690880;84;21157;-80
2021/10/12 10:01:09;;;;;;;6.53;2.92;;;;;;;13.51;66.68;100643.31;1690908;84;21826;-80
2021/10/12 10:03:36;;;;;;;8.33;2.30;;;;;;;13.64;66.10;100637.72;1690971;83;21089;-81
2021/10/12 10:06:14;;;;;;;2.98;1.30;;;;;;;13.77;65.79;100642.71;1691098;84;21122;-81
2021/10/12 10:08:47;;;;;;;4.08;1.85;;;;;;;13.87;65.44;100639.71;1691168;84;21125;-80
2021/10/12 10:11:13;;;;;;;3.30;1.30;;;;;;;14.02;65.28;100651.80;1690888;84;21115;-81
2021/10/12 10:13:40;;;;;;;7.62;3.27;;;;;;;14.20;65.05;100653.25;1691052;84;21717;-81
2021/10/12 10:16:09;;;;;;;3.90;1.62;;;;;;;14.36;64.61;100652.96;1691003;84;21062;-81
2021/10/12 10:18:38;;;;;;;4.65;1.72;;;;;;;14.45;63.99;100653.89;1690891;84;21047;-81
2021/10/12 10:21:04;;;;;;;5.30;1.52;;;;;;;14.48;63.56;100648.63;1690884;83;21369;-81
2021/10/12 10:24:08;;;;;;;3.72;1.22;;;;;;;14.52;63.07;100644.67;1690991;84;21089;-81
2021/10/12 10:26:31;;;;;;;6.67;2.92;;;;;;;14.58;62.78;100643.45;1690579;84;22726;-81
2021/10/12 10:29:21;;;;;;;6.65;3.10;;;;;;;14.67;62.60;100641.28;1690744;83;21129;-81
2021/10/12 10:31:53;;;;;;;6.80;3.42;;;;;;;14.74;62.48;100640.45;1685840;84;21608;-81
2021/10/12 10:34:33;;;;;;;3.58;1.30;;;;;;;14.76;62.22;100649.73;1649140;86;21576;-81
2021/10/12 10:37:22;;;;;;;3.08;1.10;;;;;;;14.76;61.32;100645.77;1650039;86;21101;-81
2021/10/12 10:40:00;;;;;;;5.05;1.20;;;;;;;14.64;61.08;100645.25;1650215;86;21783;-81
2021/10/12 10:42:44;;;;;;;2.62;1.00;;;;;;;14.48;60.78;100644.21;1650221;86;21694;-81
2021/10/12 10:45:11;;;;;;;3.75;1.55;;;;;;;14.35;60.72;100645.00;1650376;86;21765;-81
2021/10/12 10:47:49;;;;;;;2.35;0.98;;;;;;;14.24;60.40;100648.88;1650376;86;21215;-81
2021/10/12 10:50:29;;;;;;;2.72;1.17;;;;;;;13.97;59.92;100646.88;1631356;87;21468;-81
2021/10/12 10:53:00;;;;;;;3.58;1.90;;;;;;;13.75;60.13;100650.63;1645668;86;21685;-80
2021/10/12 10:55:32;;;;;;;7.42;3.37;;;;;;;13.64;60.20;100651.39;1645905;87;21054;-80
2021/10/12 10:58:20;;;;;;;2.67;1.50;;;;;;;13.51;60.16;100656.97;1645594;87;21117;-80
2021/10/12 11:00:54;;;;;;;4.47;2.35;;;;;;;13.41;60.06;100655.54;1645874;86;21089;-80
2021/10/12 11:03:39;;;;;;;4.72;2.20;;;;;;;13.30;59.80;100656.26;1645993;87;21133;-80
2021/10/12 11:06:13;;;;;;;2.50;1.52;;;;;;;13.17;59.90;100658.73;1645980;87;21803;-80
2021/10/12 11:08:40;;;;;;;7.42;2.20;;;;;;;13.13;59.94;100650.76;1645837;87;21709;-80
2021/10/12 11:11:08;;;;;;;2.95;1.92;;;;;;;13.18;59.91;100653.03;1596289;87;21094;-80
2021/10/12 11:13:42;;;;;;;4.78;2.58;;;;;;;13.36;59.98;100647.10;1645775;86;21147;-80
2021/10/12 11:16:14;;;;;;;3.37;1.60;;;;;;;13.67;59.97;100652.76;1645756;87;21085;-80
2021/10/12 11:18:45;;;;;;;4.12;1.45;;;;;;;13.91;59.64;100646.39;1645655;86;21860;-80
2021/10/12 11:21:16;;;;;;;3.12;1.40;;;;;;;14.11;59.27;100649.64;1645410;86;21172;-79
2021/10/12 11:23:49;;;;;;;2.90;1.25;;;;;;;14.11;58.31;100647.88;1645491;87;21124;-80
2021/10/12 11:26:18;;;;;;;2.67;1.45;;;;;;;14.05;58.45;100658.86;1645527;86;21124;-80
2021/10/12 11:28:57;;;;;;;2.65;1.22;;;;;;;13.96;58.23;100660.56;1671013;84;21066;-80
2021/10/12 11:31:28;;;;;;;3.50;1.30;;;;;;;13.75;58.21;100661.20;1683179;85;22823;-79
2021/10/12 11:33:59;;;;;;;1.32;0.93;;;;;;;13.47;58.00;100663.10;1683041;85;21134;-80
2021/10/12 11:36:27;;;;;;;3.20;1.30;;;;;;;13.08;57.51;100659.05;1682946;84;21086;-80
2021/10/12 11:39:00;;;;;;;2.90;1.32;;;;;;;12.97;58.49;100676.98;1695674;83;21352;-79